INDIA METEOROLOGICAL DEPARTMENT, R.M.C. NEW DELHI
Dated:22 - 6 - 2017
METARS


Ahmedabad  
VAAH 221800Z 30006KT 4000 FU SCT020 SCT080 32/24 Q1003 NOSIG=
Amritsar   
VIAR 221800Z 00000KT 4500 BR FEW040 SCT100 27/27 Q1002 NOSIG=
Bangalore  
VOBL 221800Z 24011KT 8000 FEW012 24/21 Q1014 NOSIG=
Bhopal     
VABP 221630Z 19004KT 6000 SCT100 26/21 Q1006 NOSIG=
Bhubaneswar
VEBS 221700Z 25010KT 5000 HZ SCT018 BKN100 28/26 Q1002 NOSIG=
Chennai    
VOMM 221800Z 18010KT 6000 FEW020 SCT100 30/26 Q1007 NOSIG=
Coimbatore 
VOCB 221800Z 19011KT 6000 FEW015 24/22 Q1012 NOSIG=
Colombo    
VCBI 221710Z 20009KT 9999 FEW016 28/25 Q1011 NOSIG=
Delhi      
VIDP 221800Z 25004KT 3500 HZ NSC 30/24 Q1003 NOSIG =
Gauhati    
VEGT 221800Z NIL=
Gaya       
VEGY 221800Z 00000KT 4000 HZ SCT018 BKN100 29/23 Q1001=
Hyderabad  
VOHS 221800Z 26006KT 6000 SCT015 SCT100 28/22 Q1009 NOSIG=
Jaipur     
VIJP 221800Z VRB02KT 4000 HZ SCT035 29/19 Q1005 NOSIG=
Kochi      
VOCI 221800Z 00000KT 3000 BR FEW010 SCT012 OVC080 27/25 Q1011 NOSIG=
Kolkata    
VECC 221800Z 23004KT 3200 HZ SCT020 BKN100 28/26 Q1001 NOSIG=
Kozhikode  
VOCL 221800Z 00000KT 6000 SCT012 FEW025CB BKN080 26/24 Q1010 NOSIG=
Lucknow    
VILK 221730Z 00000KT 3000 HZ SCT020 BKN100 31/26 Q1001=
Madurai    
VOMD 221800Z 33004KT 6000 FEW020 SCT100 28/21 Q1009 NOSIG=
Mumbai     
VABB 221700Z 17006KT 3000 HZ SCT018 SCT025 BKN100 28/26 Q1006 NOSIG=
Nagpur     
VANP 221700Z 05002KT 5000 HZ SCT020 SCT100 27/22 Q1006 NOSIG=
Patna      
VEPT 221800Z NIL=
Raipur     
VERP 221700Z 2208KT 3000 -TSRA BKN020 FEWCB030 OVC080 25/24 Q1005 TEMPO 2000 TSRA RA=
Ranchi     
VERC 221630Z 20004KT 3000 -TSRA SCT015 SCT025 FEW030CB BKN100 25/22 Q1006 NOSIG=
Trichy     
VOTR 221800Z 29008KT 5000 HZ FEW016 SCT100 31/20 Q1008 NOSIG=
Trivandrum 
VOTV 221800Z 32006KT 3000 DZ FEW010 SCT015 FEW025CB BKN080 28/24 Q1010 TEMPO 2000 RA=
Varanasi   
VEBN 221700Z 00000KT 4000 HZ NSC 30/24 Q1001 NOSIG=
Vizag      
VOVZ 221800Z 00000KT 6000 FEW018 BKN090 28/25 Q1001 NOSIG =
Male       
VRMM 221700Z 25003KT 9999 FEW018TCU 29/25 Q1012 NOSIG=
Kathmandu  
VNKT 221800Z NIL=
Dhaka      
VGHS 221800Z 07004KT 4000 HZ BKN010 FEW025CB BKN100 28/25 Q1002 TEMPO TSRA=
Colombo    
VCBI 221710Z 20009KT 9999 FEW016 28/25 Q1011 NOSIG=
Karachi    
OPKC 221655Z 23015KT 6000 SCT020 BKN030 31/24 Q1001 TEMPO 23015G25KT=
Lahore     
OPLA 221655Z 20004KT 5000 FU FEW040 29/20 Q1002 A29.60=
Agra       
VIAG 221730Z VRB02KT 6000 FEW030 SCT100 31/25 Q1002 NOSIG=
Gwalior    
VIGR 221630Z 25003KT 6000 FEW250 31/19 Q1002 NOSIG=
Pune       
VAPO 221630Z 28006KT 5000 -RA SCT020 SCT030 24/22 Q1011 NOSIG =
Jamnagar   
VAJM 221630Z 23012KT 6000 SCT030 31/24 Q1002 NOSIG=